sensor_id;sensor_type;location;lat;lon;timestamp;P1;durP1;ratioP1;P2;durP2;ratioP2
45784;SDS011;31489;51.404;5.474;2022-07-06T00:00:32;4.00;;;1.45;;
45784;SDS011;31489;51.404;5.474;2022-07-06T00:02:58;2.00;;;1.50;;
45784;SDS011;31489;51.404;5.474;2022-07-06T00:05:23;3.38;;;1.58;;
45784;SDS011;31489;51.404;5.474;2022-07-06T00:07:49;3.88;;;1.58;;
45784;SDS011;31489;51.404;5.474;2022-07-06T00:10:15;3.25;;;1.60;;
45784;SDS011;31489;51.404;5.474;2022-07-06T00:12:41;3.97;;;1.80;;
45784;SDS011;31489;51.404;5.474;2022-07-06T00:15:06;2.55;;;1.55;;
45784;SDS011;31489;51.404;5.474;2022-07-06T00:17:32;4.60;;;1.48;;
45784;SDS011;31489;51.404;5.474;2022-07-06T00:19:58;2.70;;;1.85;;
45784;SDS011;31489;51.404;5.474;2022-07-06T00:22:23;3.03;;;1.65;;
45784;SDS011;31489;51.404;5.474;2022-07-06T00:24:49;4.25;;;1.67;;
45784;SDS011;31489;51.404;5.474;2022-07-06T00:27:14;3.85;;;1.83;;
45784;SDS011;31489;51.404;5.474;2022-07-06T00:29:40;4.00;;;1.70;;
45784;SDS011;31489;51.404;5.474;2022-07-06T00:32:08;5.32;;;1.90;;
45784;SDS011;31489;51.404;5.474;2022-07-06T00:34:35;5.18;;;2.10;;
45784;SDS011;31489;51.404;5.474;2022-07-06T00:37:01;4.50;;;2.08;;
45784;SDS011;31489;51.404;5.474;2022-07-06T00:39:27;3.17;;;1.90;;
45784;SDS011;31489;51.404;5.474;2022-07-06T00:41:54;3.28;;;1.77;;
45784;SDS011;31489;51.404;5.474;2022-07-06T00:44:20;5.80;;;2.08;;
45784;SDS011;31489;51.404;5.474;2022-07-06T00:46:46;3.40;;;2.13;;
45784;SDS011;31489;51.404;5.474;2022-07-06T00:49:12;2.83;;;2.10;;
45784;SDS011;31489;51.404;5.474;2022-07-06T00:51:57;4.83;;;1.97;;
45784;SDS011;31489;51.404;5.474;2022-07-06T00:54:24;6.28;;;2.40;;
45784;SDS011;31489;51.404;5.474;2022-07-06T00:56:50;3.30;;;2.28;;
45784;SDS011;31489;51.404;5.474;2022-07-06T00:59:16;4.50;;;2.22;;
45784;SDS011;31489;51.404;5.474;2022-07-06T01:01:42;4.30;;;2.17;;
45784;SDS011;31489;51.404;5.474;2022-07-06T01:04:07;5.03;;;2.42;;
45784;SDS011;31489;51.404;5.474;2022-07-06T01:06:33;3.65;;;2.33;;
45784;SDS011;31489;51.404;5.474;2022-07-06T01:08:59;3.30;;;2.60;;
45784;SDS011;31489;51.404;5.474;2022-07-06T01:11:25;4.40;;;2.45;;
45784;SDS011;31489;51.404;5.474;2022-07-06T01:13:50;4.43;;;2.92;;
45784;SDS011;31489;51.404;5.474;2022-07-06T01:16:17;3.30;;;2.17;;
45784;SDS011;31489;51.404;5.474;2022-07-06T01:18:42;3.50;;;2.35;;
45784;SDS011;31489;51.404;5.474;2022-07-06T01:21:09;2.83;;;2.40;;
45784;SDS011;31489;51.404;5.474;2022-07-06T01:23:43;3.55;;;2.67;;
45784;SDS011;31489;51.404;5.474;2022-07-06T01:26:10;4.45;;;2.63;;
45784;SDS011;31489;51.404;5.474;2022-07-06T01:28:38;4.43;;;2.65;;
45784;SDS011;31489;51.404;5.474;2022-07-06T01:31:04;6.95;;;3.05;;
45784;SDS011;31489;51.404;5.474;2022-07-06T01:33:30;4.15;;;2.72;;
45784;SDS011;31489;51.404;5.474;2022-07-06T01:35:56;4.97;;;3.05;;
45784;SDS011;31489;51.404;5.474;2022-07-06T01:38:22;4.43;;;2.95;;
45784;SDS011;31489;51.404;5.474;2022-07-06T01:40:47;4.20;;;2.80;;
45784;SDS011;31489;51.404;5.474;2022-07-06T01:43:13;4.53;;;3.17;;
45784;SDS011;31489;51.404;5.474;2022-07-06T01:45:38;4.90;;;2.78;;
45784;SDS011;31489;51.404;5.474;2022-07-06T01:48:07;4.90;;;2.95;;
45784;SDS011;31489;51.404;5.474;2022-07-06T01:50:33;4.70;;;2.85;;
45784;SDS011;31489;51.404;5.474;2022-07-06T01:52:59;6.20;;;2.90;;
45784;SDS011;31489;51.404;5.474;2022-07-06T01:55:25;4.65;;;2.97;;
45784;SDS011;31489;51.404;5.474;2022-07-06T01:57:50;4.55;;;3.20;;
45784;SDS011;31489;51.404;5.474;2022-07-06T02:00:16;3.70;;;2.83;;
45784;SDS011;31489;51.404;5.474;2022-07-06T02:02:42;4.18;;;3.08;;
45784;SDS011;31489;51.404;5.474;2022-07-06T02:05:07;4.93;;;3.00;;
45784;SDS011;31489;51.404;5.474;2022-07-06T02:07:33;6.40;;;3.15;;
45784;SDS011;31489;51.404;5.474;2022-07-06T02:09:59;3.42;;;2.88;;
45784;SDS011;31489;51.404;5.474;2022-07-06T02:12:24;3.28;;;2.95;;
45784;SDS011;31489;51.404;5.474;2022-07-06T02:14:50;3.88;;;3.28;;
45784;SDS011;31489;51.404;5.474;2022-07-06T02:17:15;5.18;;;3.30;;
45784;SDS011;31489;51.404;5.474;2022-07-06T02:19:41;6.28;;;3.53;;
45784;SDS011;31489;51.404;5.474;2022-07-06T02:22:06;6.25;;;3.42;;
45784;SDS011;31489;51.404;5.474;2022-07-06T02:24:32;3.92;;;3.17;;
45784;SDS011;31489;51.404;5.474;2022-07-06T02:26:58;6.00;;;4.03;;
45784;SDS011;31489;51.404;5.474;2022-07-06T02:29:23;4.75;;;3.60;;
45784;SDS011;31489;51.404;5.474;2022-07-06T02:31:51;3.67;;;3.17;;
45784;SDS011;31489;51.404;5.474;2022-07-06T02:34:16;6.68;;;3.47;;
45784;SDS011;31489;51.404;5.474;2022-07-06T02:36:42;5.95;;;3.50;;
45784;SDS011;31489;51.404;5.474;2022-07-06T02:39:07;4.75;;;3.45;;
45784;SDS011;31489;51.404;5.474;2022-07-06T02:41:33;4.38;;;3.28;;
45784;SDS011;31489;51.404;5.474;2022-07-06T02:43:58;5.35;;;3.50;;
45784;SDS011;31489;51.404;5.474;2022-07-06T02:46:24;5.50;;;3.25;;
45784;SDS011;31489;51.404;5.474;2022-07-06T02:48:50;5.53;;;3.42;;
45784;SDS011;31489;51.404;5.474;2022-07-06T02:51:15;4.25;;;3.42;;
45784;SDS011;31489;51.404;5.474;2022-07-06T02:53:41;13.00;;;3.85;;
45784;SDS011;31489;51.404;5.474;2022-07-06T02:56:06;4.93;;;3.28;;
45784;SDS011;31489;51.404;5.474;2022-07-06T02:58:32;4.65;;;3.45;;
45784;SDS011;31489;51.404;5.474;2022-07-06T03:00:57;4.88;;;3.67;;
45784;SDS011;31489;51.404;5.474;2022-07-06T03:03:23;5.63;;;3.55;;
45784;SDS011;31489;51.404;5.474;2022-07-06T03:05:49;4.70;;;3.55;;
45784;SDS011;31489;51.404;5.474;2022-07-06T03:08:14;3.90;;;3.45;;
45784;SDS011;31489;51.404;5.474;2022-07-06T03:10:40;4.55;;;3.63;;
45784;SDS011;31489;51.404;5.474;2022-07-06T03:13:06;6.13;;;3.17;;
45784;SDS011;31489;51.404;5.474;2022-07-06T03:15:32;5.88;;;3.50;;
45784;SDS011;31489;51.404;5.474;2022-07-06T03:17:57;5.28;;;3.30;;
45784;SDS011;31489;51.404;5.474;2022-07-06T03:20:23;6.85;;;3.53;;
45784;SDS011;31489;51.404;5.474;2022-07-06T03:22:48;5.82;;;3.80;;
45784;SDS011;31489;51.404;5.474;2022-07-06T03:25:14;4.68;;;3.22;;
45784;SDS011;31489;51.404;5.474;2022-07-06T03:27:39;5.32;;;3.45;;
45784;SDS011;31489;51.404;5.474;2022-07-06T03:30:05;4.53;;;3.40;;
45784;SDS011;31489;51.404;5.474;2022-07-06T03:32:31;5.22;;;3.85;;
45784;SDS011;31489;51.404;5.474;2022-07-06T03:34:57;4.30;;;3.17;;
45784;SDS011;31489;51.404;5.474;2022-07-06T03:37:22;4.50;;;3.25;;
45784;SDS011;31489;51.404;5.474;2022-07-06T03:39:48;4.88;;;3.38;;
45784;SDS011;31489;51.404;5.474;2022-07-06T03:42:13;6.45;;;4.00;;
45784;SDS011;31489;51.404;5.474;2022-07-06T03:44:39;3.55;;;3.25;;
45784;SDS011;31489;51.404;5.474;2022-07-06T03:47:05;5.63;;;3.63;;
45784;SDS011;31489;51.404;5.474;2022-07-06T03:49:30;7.63;;;4.22;;
45784;SDS011;31489;51.404;5.474;2022-07-06T03:52:31;4.45;;;3.40;;
45784;SDS011;31489;51.404;5.474;2022-07-06T03:54:57;7.00;;;3.22;;
45784;SDS011;31489;51.404;5.474;2022-07-06T03:57:22;3.75;;;3.10;;
45784;SDS011;31489;51.404;5.474;2022-07-06T03:59:48;4.35;;;3.72;;
45784;SDS011;31489;51.404;5.474;2022-07-06T04:02:14;4.85;;;3.80;;
45784;SDS011;31489;51.404;5.474;2022-07-06T04:04:39;5.18;;;3.47;;
45784;SDS011;31489;51.404;5.474;2022-07-06T04:07:05;6.32;;;3.60;;
45784;SDS011;31489;51.404;5.474;2022-07-06T04:09:31;5.78;;;3.47;;
45784;SDS011;31489;51.404;5.474;2022-07-06T04:11:56;4.88;;;3.53;;
45784;SDS011;31489;51.404;5.474;2022-07-06T04:14:22;4.65;;;3.50;;
45784;SDS011;31489;51.404;5.474;2022-07-06T04:16:49;4.88;;;3.40;;
45784;SDS011;31489;51.404;5.474;2022-07-06T04:19:15;5.03;;;3.50;;
45784;SDS011;31489;51.404;5.474;2022-07-06T04:21:40;5.75;;;3.63;;
45784;SDS011;31489;51.404;5.474;2022-07-06T04:24:06;4.80;;;3.30;;
45784;SDS011;31489;51.404;5.474;2022-07-06T04:26:32;4.43;;;3.15;;
45784;SDS011;31489;51.404;5.474;2022-07-06T04:28:58;7.20;;;3.85;;
45784;SDS011;31489;51.404;5.474;2022-07-06T04:31:23;6.78;;;2.95;;
45784;SDS011;31489;51.404;5.474;2022-07-06T04:33:49;4.07;;;3.28;;
45784;SDS011;31489;51.404;5.474;2022-07-06T04:36:15;4.85;;;3.20;;
45784;SDS011;31489;51.404;5.474;2022-07-06T04:38:40;4.45;;;3.35;;
45784;SDS011;31489;51.404;5.474;2022-07-06T04:41:06;5.38;;;3.13;;
45784;SDS011;31489;51.404;5.474;2022-07-06T04:43:32;6.93;;;3.25;;
45784;SDS011;31489;51.404;5.474;2022-07-06T04:45:57;4.45;;;3.20;;
45784;SDS011;31489;51.404;5.474;2022-07-06T04:48:23;4.90;;;2.97;;
45784;SDS011;31489;51.404;5.474;2022-07-06T04:50:49;6.82;;;3.88;;
45784;SDS011;31489;51.404;5.474;2022-07-06T04:53:14;5.18;;;3.70;;
45784;SDS011;31489;51.404;5.474;2022-07-06T04:55:40;4.45;;;3.35;;
45784;SDS011;31489;51.404;5.474;2022-07-06T04:58:06;5.22;;;3.60;;
45784;SDS011;31489;51.404;5.474;2022-07-06T05:00:31;3.83;;;3.05;;
45784;SDS011;31489;51.404;5.474;2022-07-06T05:02:57;5.40;;;3.30;;
45784;SDS011;31489;51.404;5.474;2022-07-06T05:05:23;4.18;;;3.28;;
45784;SDS011;31489;51.404;5.474;2022-07-06T05:07:49;4.93;;;3.10;;
45784;SDS011;31489;51.404;5.474;2022-07-06T05:10:15;4.10;;;3.13;;
45784;SDS011;31489;51.404;5.474;2022-07-06T05:12:41;6.85;;;3.30;;
45784;SDS011;31489;51.404;5.474;2022-07-06T05:15:07;7.28;;;3.38;;
45784;SDS011;31489;51.404;5.474;2022-07-06T05:17:33;4.97;;;3.03;;
45784;SDS011;31489;51.404;5.474;2022-07-06T05:19:59;5.00;;;3.60;;
45784;SDS011;31489;51.404;5.474;2022-07-06T05:22:26;6.05;;;2.97;;
45784;SDS011;31489;51.404;5.474;2022-07-06T05:24:51;4.82;;;3.08;;
45784;SDS011;31489;51.404;5.474;2022-07-06T05:27:17;4.85;;;3.17;;
45784;SDS011;31489;51.404;5.474;2022-07-06T05:29:43;3.83;;;2.70;;
45784;SDS011;31489;51.404;5.474;2022-07-06T05:32:09;5.03;;;2.38;;
45784;SDS011;31489;51.404;5.474;2022-07-06T05:34:34;3.97;;;2.40;;
45784;SDS011;31489;51.404;5.474;2022-07-06T05:37:01;4.78;;;2.85;;
45784;SDS011;31489;51.404;5.474;2022-07-06T05:39:27;3.65;;;2.50;;
45784;SDS011;31489;51.404;5.474;2022-07-06T05:41:53;4.07;;;2.13;;
45784;SDS011;31489;51.404;5.474;2022-07-06T05:44:19;4.18;;;2.30;;
45784;SDS011;31489;51.404;5.474;2022-07-06T05:46:44;3.97;;;1.65;;
45784;SDS011;31489;51.404;5.474;2022-07-06T05:49:10;2.30;;;1.40;;
45784;SDS011;31489;51.404;5.474;2022-07-06T05:51:54;1.92;;;1.17;;
45784;SDS011;31489;51.404;5.474;2022-07-06T05:54:19;5.80;;;1.50;;
45784;SDS011;31489;51.404;5.474;2022-07-06T05:56:45;3.20;;;1.25;;
45784;SDS011;31489;51.404;5.474;2022-07-06T05:59:11;4.85;;;1.50;;
45784;SDS011;31489;51.404;5.474;2022-07-06T06:01:37;5.72;;;1.17;;
45784;SDS011;31489;51.404;5.474;2022-07-06T06:04:02;1.80;;;1.30;;
45784;SDS011;31489;51.404;5.474;2022-07-06T06:06:29;4.60;;;1.10;;
45784;SDS011;31489;51.404;5.474;2022-07-06T06:08:56;6.93;;;1.40;;
45784;SDS011;31489;51.404;5.474;2022-07-06T06:11:22;2.50;;;0.88;;
45784;SDS011;31489;51.404;5.474;2022-07-06T06:13:48;3.67;;;1.10;;
45784;SDS011;31489;51.404;5.474;2022-07-06T06:16:13;1.55;;;1.00;;
45784;SDS011;31489;51.404;5.474;2022-07-06T06:18:40;2.15;;;1.10;;
45784;SDS011;31489;51.404;5.474;2022-07-06T06:21:06;1.40;;;0.90;;
45784;SDS011;31489;51.404;5.474;2022-07-06T06:23:31;1.45;;;1.00;;
45784;SDS011;31489;51.404;5.474;2022-07-06T06:25:57;4.25;;;0.70;;
45784;SDS011;31489;51.404;5.474;2022-07-06T06:28:22;2.92;;;1.10;;
45784;SDS011;31489;51.404;5.474;2022-07-06T06:30:48;4.20;;;1.23;;
45784;SDS011;31489;51.404;5.474;2022-07-06T06:33:15;3.13;;;0.95;;
45784;SDS011;31489;51.404;5.474;2022-07-06T06:35:44;2.08;;;0.82;;
45784;SDS011;31489;51.404;5.474;2022-07-06T06:38:11;2.83;;;0.90;;
45784;SDS011;31489;51.404;5.474;2022-07-06T06:40:37;3.13;;;1.13;;
45784;SDS011;31489;51.404;5.474;2022-07-06T06:43:03;2.78;;;1.02;;
45784;SDS011;31489;51.404;5.474;2022-07-06T06:45:30;2.83;;;1.13;;
45784;SDS011;31489;51.404;5.474;2022-07-06T06:47:56;1.70;;;0.90;;
45784;SDS011;31489;51.404;5.474;2022-07-06T06:50:21;2.22;;;0.90;;
45784;SDS011;31489;51.404;5.474;2022-07-06T06:52:50;2.53;;;0.80;;
45784;SDS011;31489;51.404;5.474;2022-07-06T06:55:16;1.42;;;0.90;;
45784;SDS011;31489;51.404;5.474;2022-07-06T06:57:42;2.85;;;1.23;;
45784;SDS011;31489;51.404;5.474;2022-07-06T07:00:08;2.13;;;1.13;;
45784;SDS011;31489;51.404;5.474;2022-07-06T07:02:34;4.20;;;1.20;;
45784;SDS011;31489;51.404;5.474;2022-07-06T07:05:00;3.65;;;1.33;;
45784;SDS011;31489;51.404;5.474;2022-07-06T07:07:26;4.15;;;1.50;;
45784;SDS011;31489;51.404;5.474;2022-07-06T07:09:51;6.65;;;1.30;;
45784;SDS011;31489;51.404;5.474;2022-07-06T07:12:17;4.38;;;1.52;;
45784;SDS011;31489;51.404;5.474;2022-07-06T07:14:43;5.75;;;1.30;;
45784;SDS011;31489;51.404;5.474;2022-07-06T07:17:09;2.28;;;1.20;;
45784;SDS011;31489;51.404;5.474;2022-07-06T07:19:36;4.15;;;1.20;;
45784;SDS011;31489;51.404;5.474;2022-07-06T07:22:02;3.13;;;1.05;;
45784;SDS011;31489;51.404;5.474;2022-07-06T07:24:28;3.97;;;1.08;;
45784;SDS011;31489;51.404;5.474;2022-07-06T07:26:53;2.22;;;1.15;;
45784;SDS011;31489;51.404;5.474;2022-07-06T07:29:19;2.10;;;1.00;;
45784;SDS011;31489;51.404;5.474;2022-07-06T07:31:44;4.30;;;0.98;;
45784;SDS011;31489;51.404;5.474;2022-07-06T07:34:10;3.40;;;1.05;;
45784;SDS011;31489;51.404;5.474;2022-07-06T07:36:36;1.45;;;0.88;;
45784;SDS011;31489;51.404;5.474;2022-07-06T07:39:02;1.67;;;1.00;;
45784;SDS011;31489;51.404;5.474;2022-07-06T07:41:28;2.05;;;1.05;;
45784;SDS011;31489;51.404;5.474;2022-07-06T07:43:53;1.83;;;0.80;;
45784;SDS011;31489;51.404;5.474;2022-07-06T07:46:19;4.10;;;0.90;;
45784;SDS011;31489;51.404;5.474;2022-07-06T07:48:45;2.92;;;0.90;;
45784;SDS011;31489;51.404;5.474;2022-07-06T07:51:10;3.38;;;0.93;;
45784;SDS011;31489;51.404;5.474;2022-07-06T07:53:36;3.28;;;1.20;;
45784;SDS011;31489;51.404;5.474;2022-07-06T07:56:01;1.23;;;0.88;;
45784;SDS011;31489;51.404;5.474;2022-07-06T07:58:27;1.40;;;0.80;;
45784;SDS011;31489;51.404;5.474;2022-07-06T08:00:54;1.30;;;0.63;;
45784;SDS011;31489;51.404;5.474;2022-07-06T08:03:20;3.45;;;0.80;;
45784;SDS011;31489;51.404;5.474;2022-07-06T08:05:45;1.67;;;0.90;;
45784;SDS011;31489;51.404;5.474;2022-07-06T08:08:13;1.33;;;0.60;;
45784;SDS011;31489;51.404;5.474;2022-07-06T08:10:39;1.58;;;0.82;;
45784;SDS011;31489;51.404;5.474;2022-07-06T08:13:05;3.50;;;0.85;;
45784;SDS011;31489;51.404;5.474;2022-07-06T08:15:32;2.25;;;0.95;;
45784;SDS011;31489;51.404;5.474;2022-07-06T08:17:58;1.17;;;0.50;;
45784;SDS011;31489;51.404;5.474;2022-07-06T08:20:24;1.25;;;0.60;;
45784;SDS011;31489;51.404;5.474;2022-07-06T08:22:50;2.17;;;0.90;;
45784;SDS011;31489;51.404;5.474;2022-07-06T08:25:16;1.38;;;0.70;;
45784;SDS011;31489;51.404;5.474;2022-07-06T08:27:43;1.73;;;0.80;;
45784;SDS011;31489;51.404;5.474;2022-07-06T08:30:09;2.78;;;0.70;;
45784;SDS011;31489;51.404;5.474;2022-07-06T08:32:39;0.88;;;0.50;;
45784;SDS011;31489;51.404;5.474;2022-07-06T08:35:06;0.30;;;0.30;;
45784;SDS011;31489;51.404;5.474;2022-07-06T08:37:32;1.45;;;0.60;;
45784;SDS011;31489;51.404;5.474;2022-07-06T08:39:58;1.75;;;0.52;;
45784;SDS011;31489;51.404;5.474;2022-07-06T08:42:25;0.40;;;0.30;;
45784;SDS011;31489;51.404;5.474;2022-07-06T08:44:56;0.60;;;0.50;;
45784;SDS011;31489;51.404;5.474;2022-07-06T08:47:25;0.95;;;0.68;;
45784;SDS011;31489;51.404;5.474;2022-07-06T08:49:52;1.85;;;0.63;;
45784;SDS011;31489;51.404;5.474;2022-07-06T08:52:19;1.85;;;0.70;;
45784;SDS011;31489;51.404;5.474;2022-07-06T08:54:48;1.60;;;0.60;;
45784;SDS011;31489;51.404;5.474;2022-07-06T08:57:13;2.97;;;0.70;;
45784;SDS011;31489;51.404;5.474;2022-07-06T08:59:39;1.33;;;0.65;;
45784;SDS011;31489;51.404;5.474;2022-07-06T09:02:05;1.65;;;0.75;;
45784;SDS011;31489;51.404;5.474;2022-07-06T09:04:34;1.30;;;0.80;;
45784;SDS011;31489;51.404;5.474;2022-07-06T09:07:01;2.80;;;0.90;;
45784;SDS011;31489;51.404;5.474;2022-07-06T09:09:27;3.63;;;1.05;;
45784;SDS011;31489;51.404;5.474;2022-07-06T09:11:53;2.50;;;1.00;;
45784;SDS011;31489;51.404;5.474;2022-07-06T09:14:19;2.08;;;1.00;;
45784;SDS011;31489;51.404;5.474;2022-07-06T09:16:45;1.50;;;1.10;;
45784;SDS011;31489;51.404;5.474;2022-07-06T09:19:12;2.35;;;0.70;;
45784;SDS011;31489;51.404;5.474;2022-07-06T09:21:38;1.73;;;0.65;;
45784;SDS011;31489;51.404;5.474;2022-07-06T09:24:07;2.58;;;0.80;;
45784;SDS011;31489;51.404;5.474;2022-07-06T09:26:35;1.67;;;0.68;;
45784;SDS011;31489;51.404;5.474;2022-07-06T09:29:02;6.60;;;0.90;;
45784;SDS011;31489;51.404;5.474;2022-07-06T09:31:30;2.40;;;0.90;;
45784;SDS011;31489;51.404;5.474;2022-07-06T09:33:58;1.73;;;0.80;;
45784;SDS011;31489;51.404;5.474;2022-07-06T09:41:46;3.30;;;0.70;;
45784;SDS011;31489;51.404;5.474;2022-07-06T09:44:13;0.93;;;0.55;;
45784;SDS011;31489;51.404;5.474;2022-07-06T09:46:47;2.05;;;0.60;;
45784;SDS011;31489;51.404;5.474;2022-07-06T09:49:16;1.20;;;0.75;;
45784;SDS011;31489;51.404;5.474;2022-07-06T09:51:47;2.60;;;0.75;;
45784;SDS011;31489;51.404;5.474;2022-07-06T09:54:14;1.27;;;0.85;;
45784;SDS011;31489;51.404;5.474;2022-07-06T09:56:41;1.45;;;0.60;;
45784;SDS011;31489;51.404;5.474;2022-07-06T09:59:10;1.05;;;0.70;;
45784;SDS011;31489;51.404;5.474;2022-07-06T10:01:37;2.67;;;0.90;;
45784;SDS011;31489;51.404;5.474;2022-07-06T10:04:05;0.80;;;0.80;;
45784;SDS011;31489;51.404;5.474;2022-07-06T10:06:31;5.38;;;2.47;;
45784;SDS011;31489;51.404;5.474;2022-07-06T10:08:57;4.60;;;2.80;;
45784;SDS011;31489;51.404;5.474;2022-07-06T10:11:24;1.85;;;1.30;;
45784;SDS011;31489;51.404;5.474;2022-07-06T10:13:50;4.53;;;2.97;;
45784;SDS011;31489;51.404;5.474;2022-07-06T10:16:20;3.30;;;1.70;;
45784;SDS011;31489;51.404;5.474;2022-07-06T10:18:47;6.30;;;4.22;;
45784;SDS011;31489;51.404;5.474;2022-07-06T10:21:15;4.15;;;1.67;;
45784;SDS011;31489;51.404;5.474;2022-07-06T10:23:42;2.00;;;1.23;;
45784;SDS011;31489;51.404;5.474;2022-07-06T10:26:09;13.13;;;8.30;;
45784;SDS011;31489;51.404;5.474;2022-07-06T10:28:35;2.17;;;1.83;;
45784;SDS011;31489;51.404;5.474;2022-07-06T10:31:02;2.90;;;1.65;;
45784;SDS011;31489;51.404;5.474;2022-07-06T10:33:29;1.92;;;1.23;;
45784;SDS011;31489;51.404;5.474;2022-07-06T10:35:57;3.67;;;1.00;;
45784;SDS011;31489;51.404;5.474;2022-07-06T10:38:33;2.25;;;0.70;;
45784;SDS011;31489;51.404;5.474;2022-07-06T10:41:06;4.18;;;1.17;;
45784;SDS011;31489;51.404;5.474;2022-07-06T10:43:38;4.28;;;0.93;;
45784;SDS011;31489;51.404;5.474;2022-07-06T10:46:11;2.20;;;0.68;;
45784;SDS011;31489;51.404;5.474;2022-07-06T10:48:39;1.05;;;0.60;;
45784;SDS011;31489;51.404;5.474;2022-07-06T10:51:07;1.35;;;0.65;;
45784;SDS011;31489;51.404;5.474;2022-07-06T10:53:39;1.80;;;0.63;;
45784;SDS011;31489;51.404;5.474;2022-07-06T10:56:06;1.45;;;0.52;;
45784;SDS011;31489;51.404;5.474;2022-07-06T11:01:16;1.05;;;0.60;;
45784;SDS011;31489;51.404;5.474;2022-07-06T11:03:44;1.52;;;0.70;;
45784;SDS011;31489;51.404;5.474;2022-07-06T11:11:43;1.40;;;0.73;;
45784;SDS011;31489;51.404;5.474;2022-07-06T11:19:18;1.60;;;0.85;;
45784;SDS011;31489;51.404;5.474;2022-07-06T11:24:21;1.30;;;0.60;;
45784;SDS011;31489;51.404;5.474;2022-07-06T11:26:49;2.78;;;0.90;;
45784;SDS011;31489;51.404;5.474;2022-07-06T11:29:17;1.02;;;0.60;;
45784;SDS011;31489;51.404;5.474;2022-07-06T11:31:46;2.10;;;0.70;;
45784;SDS011;31489;51.404;5.474;2022-07-06T11:34:17;1.52;;;0.70;;
45784;SDS011;31489;51.404;5.474;2022-07-06T11:36:45;0.95;;;0.70;;
45784;SDS011;31489;51.404;5.474;2022-07-06T11:39:11;4.63;;;0.90;;
45784;SDS011;31489;51.404;5.474;2022-07-06T11:41:37;3.63;;;1.10;;
45784;SDS011;31489;51.404;5.474;2022-07-06T11:44:03;1.65;;;0.90;;
45784;SDS011;31489;51.404;5.474;2022-07-06T11:46:30;3.90;;;0.70;;
45784;SDS011;31489;51.404;5.474;2022-07-06T11:48:57;5.45;;;0.90;;
45784;SDS011;31489;51.404;5.474;2022-07-06T11:51:27;1.88;;;0.68;;
45784;SDS011;31489;51.404;5.474;2022-07-06T11:53:55;2.45;;;0.70;;
45784;SDS011;31489;51.404;5.474;2022-07-06T11:56:23;2.10;;;1.10;;
45784;SDS011;31489;51.404;5.474;2022-07-06T11:58:56;1.75;;;0.80;;
45784;SDS011;31489;51.404;5.474;2022-07-06T12:01:23;2.63;;;0.82;;
45784;SDS011;31489;51.404;5.474;2022-07-06T12:03:50;2.35;;;1.00;;
45784;SDS011;31489;51.404;5.474;2022-07-06T12:06:20;2.30;;;1.00;;
45784;SDS011;31489;51.404;5.474;2022-07-06T12:08:49;2.67;;;0.90;;
45784;SDS011;31489;51.404;5.474;2022-07-06T12:11:24;3.53;;;0.77;;
45784;SDS011;31489;51.404;5.474;2022-07-06T12:13:56;4.25;;;1.05;;
45784;SDS011;31489;51.404;5.474;2022-07-06T12:16:34;2.70;;;0.50;;
45784;SDS011;31489;51.404;5.474;2022-07-06T12:19:01;4.18;;;1.13;;
45784;SDS011;31489;51.404;5.474;2022-07-06T12:21:28;1.85;;;0.68;;
45784;SDS011;31489;51.404;5.474;2022-07-06T12:23:55;2.65;;;0.77;;
45784;SDS011;31489;51.404;5.474;2022-07-06T12:26:22;2.80;;;0.82;;
45784;SDS011;31489;51.404;5.474;2022-07-06T12:29:00;2.55;;;0.77;;
45784;SDS011;31489;51.404;5.474;2022-07-06T12:36:52;4.97;;;1.00;;
45784;SDS011;31489;51.404;5.474;2022-07-06T12:39:24;1.75;;;0.77;;
45784;SDS011;31489;51.404;5.474;2022-07-06T12:41:54;2.45;;;1.00;;
45784;SDS011;31489;51.404;5.474;2022-07-06T12:44:25;1.25;;;1.02;;
45784;SDS011;31489;51.404;5.474;2022-07-06T12:47:01;6.78;;;0.73;;
45784;SDS011;31489;51.404;5.474;2022-07-06T12:49:31;1.52;;;0.90;;
45784;SDS011;31489;51.404;5.474;2022-07-06T12:51:58;7.63;;;0.98;;
45784;SDS011;31489;51.404;5.474;2022-07-06T12:59:33;1.83;;;0.95;;
45784;SDS011;31489;51.404;5.474;2022-07-06T13:02:00;1.85;;;0.93;;
45784;SDS011;31489;51.404;5.474;2022-07-06T13:04:27;4.50;;;1.00;;
45784;SDS011;31489;51.404;5.474;2022-07-06T13:06:53;4.30;;;0.82;;
45784;SDS011;31489;51.404;5.474;2022-07-06T13:09:20;1.92;;;0.80;;
45784;SDS011;31489;51.404;5.474;2022-07-06T13:11:46;1.00;;;0.82;;
45784;SDS011;31489;51.404;5.474;2022-07-06T13:14:13;1.17;;;0.60;;
45784;SDS011;31489;51.404;5.474;2022-07-06T13:16:40;1.85;;;0.80;;
45784;SDS011;31489;51.404;5.474;2022-07-06T13:19:06;2.28;;;0.77;;
45784;SDS011;31489;51.404;5.474;2022-07-06T13:21:32;1.88;;;1.00;;
45784;SDS011;31489;51.404;5.474;2022-07-06T13:23:58;2.17;;;0.70;;
45784;SDS011;31489;51.404;5.474;2022-07-06T13:26:24;1.00;;;0.80;;
45784;SDS011;31489;51.404;5.474;2022-07-06T13:28:49;2.58;;;0.80;;
45784;SDS011;31489;51.404;5.474;2022-07-06T13:31:15;2.03;;;0.85;;
45784;SDS011;31489;51.404;5.474;2022-07-06T13:33:44;2.03;;;0.85;;
45784;SDS011;31489;51.404;5.474;2022-07-06T13:36:12;1.30;;;0.65;;
45784;SDS011;31489;51.404;5.474;2022-07-06T13:38:38;0.75;;;0.60;;
45784;SDS011;31489;51.404;5.474;2022-07-06T13:41:03;1.45;;;0.70;;
45784;SDS011;31489;51.404;5.474;2022-07-06T13:43:30;1.23;;;0.52;;
45784;SDS011;31489;51.404;5.474;2022-07-06T13:46:04;2.35;;;0.93;;
45784;SDS011;31489;51.404;5.474;2022-07-06T13:48:31;2.30;;;0.90;;
45784;SDS011;31489;51.404;5.474;2022-07-06T13:50:58;0.85;;;0.73;;
45784;SDS011;31489;51.404;5.474;2022-07-06T13:53:25;2.80;;;1.10;;
45784;SDS011;31489;51.404;5.474;2022-07-06T13:55:51;3.80;;;0.88;;
45784;SDS011;31489;51.404;5.474;2022-07-06T13:58:17;1.45;;;0.75;;
45784;SDS011;31489;51.404;5.474;2022-07-06T14:00:43;2.55;;;0.90;;
45784;SDS011;31489;51.404;5.474;2022-07-06T14:03:09;2.45;;;0.80;;
45784;SDS011;31489;51.404;5.474;2022-07-06T14:05:35;1.85;;;0.90;;
45784;SDS011;31489;51.404;5.474;2022-07-06T14:08:01;0.88;;;0.80;;
45784;SDS011;31489;51.404;5.474;2022-07-06T14:10:27;3.60;;;1.00;;
45784;SDS011;31489;51.404;5.474;2022-07-06T14:12:53;0.80;;;0.60;;
45784;SDS011;31489;51.404;5.474;2022-07-06T14:15:19;1.70;;;0.80;;
45784;SDS011;31489;51.404;5.474;2022-07-06T14:17:45;2.72;;;0.80;;
45784;SDS011;31489;51.404;5.474;2022-07-06T14:20:12;2.65;;;1.02;;
45784;SDS011;31489;51.404;5.474;2022-07-06T14:22:39;3.30;;;1.10;;
45784;SDS011;31489;51.404;5.474;2022-07-06T14:25:08;1.83;;;0.70;;
45784;SDS011;31489;51.404;5.474;2022-07-06T14:27:34;1.80;;;0.88;;
45784;SDS011;31489;51.404;5.474;2022-07-06T14:30:03;2.00;;;0.80;;
45784;SDS011;31489;51.404;5.474;2022-07-06T14:32:29;1.33;;;0.85;;
45784;SDS011;31489;51.404;5.474;2022-07-06T14:34:55;1.42;;;0.80;;
45784;SDS011;31489;51.404;5.474;2022-07-06T14:37:21;3.10;;;0.82;;
45784;SDS011;31489;51.404;5.474;2022-07-06T14:39:46;2.90;;;0.95;;
45784;SDS011;31489;51.404;5.474;2022-07-06T14:42:14;3.20;;;1.00;;
45784;SDS011;31489;51.404;5.474;2022-07-06T14:44:43;2.42;;;1.00;;
45784;SDS011;31489;51.404;5.474;2022-07-06T14:47:11;2.47;;;0.93;;
45784;SDS011;31489;51.404;5.474;2022-07-06T14:49:37;2.10;;;0.98;;
45784;SDS011;31489;51.404;5.474;2022-07-06T14:52:03;2.33;;;0.98;;
45784;SDS011;31489;51.404;5.474;2022-07-06T14:54:29;2.78;;;0.80;;
45784;SDS011;31489;51.404;5.474;2022-07-06T14:56:55;1.67;;;0.80;;
45784;SDS011;31489;51.404;5.474;2022-07-06T14:59:21;3.33;;;1.00;;
45784;SDS011;31489;51.404;5.474;2022-07-06T15:01:49;3.22;;;1.00;;
45784;SDS011;31489;51.404;5.474;2022-07-06T15:04:15;2.05;;;0.95;;
45784;SDS011;31489;51.404;5.474;2022-07-06T15:06:41;2.47;;;1.02;;
45784;SDS011;31489;51.404;5.474;2022-07-06T15:09:08;2.58;;;0.90;;
45784;SDS011;31489;51.404;5.474;2022-07-06T15:11:36;2.78;;;0.90;;
45784;SDS011;31489;51.404;5.474;2022-07-06T15:14:02;4.10;;;0.77;;
45784;SDS011;31489;51.404;5.474;2022-07-06T15:16:28;0.98;;;0.70;;